sensor_id;sensor_type;location;lat;lon;timestamp;pressure;altitude;pressure_sealevel;temperature;humidity
79527;BME280;68974;47.754;-3.364;2023-08-06T00:00:10;101965.34;;;14.58;76.79
79527;BME280;68974;47.754;-3.364;2023-08-06T00:02:35;101959.53;;;14.60;76.21
79527;BME280;68974;47.754;-3.364;2023-08-06T00:05:01;101962.31;;;14.55;76.62
79527;BME280;68974;47.754;-3.364;2023-08-06T00:07:26;101961.47;;;14.59;76.88
79527;BME280;68974;47.754;-3.364;2023-08-06T00:09:52;101965.34;;;14.58;76.93
79527;BME280;68974;47.754;-3.364;2023-08-06T00:12:17;101965.91;;;14.55;76.91
79527;BME280;68974;47.754;-3.364;2023-08-06T00:14:43;101958.13;;;14.57;77.19
79527;BME280;68974;47.754;-3.364;2023-08-06T00:17:09;101959.81;;;14.48;76.94
79527;BME280;68974;47.754;-3.364;2023-08-06T00:19:35;101967.56;;;14.51;77.12
79527;BME280;68974;47.754;-3.364;2023-08-06T00:22:00;101958.72;;;14.54;77.09
79527;BME280;68974;47.754;-3.364;2023-08-06T00:24:27;101967.00;;;14.54;77.28
79527;BME280;68974;47.754;-3.364;2023-08-06T00:26:52;101966.16;;;14.54;77.20
79527;BME280;68974;47.754;-3.364;2023-08-06T00:29:18;101969.78;;;14.44;77.43
79527;BME280;68974;47.754;-3.364;2023-08-06T00:31:43;101981.41;;;14.36;77.79
79527;BME280;68974;47.754;-3.364;2023-08-06T00:34:11;101987.47;;;14.38;77.55
79527;BME280;68974;47.754;-3.364;2023-08-06T00:36:37;101988.25;;;14.33;78.51
79527;BME280;68974;47.754;-3.364;2023-08-06T00:39:02;101994.63;;;14.34;77.93
79527;BME280;68974;47.754;-3.364;2023-08-06T00:41:28;101995.19;;;14.31;77.92
79527;BME280;68974;47.754;-3.364;2023-08-06T00:43:54;101996.00;;;14.31;78.23
79527;BME280;68974;47.754;-3.364;2023-08-06T00:46:20;101984.13;;;14.21;78.37
79527;BME280;68974;47.754;-3.364;2023-08-06T00:48:46;101987.97;;;14.15;78.87
79527;BME280;68974;47.754;-3.364;2023-08-06T00:51:12;101995.69;;;14.18;78.96
79527;BME280;68974;47.754;-3.364;2023-08-06T00:53:38;101988.81;;;14.10;79.15
79527;BME280;68974;47.754;-3.364;2023-08-06T00:56:04;101995.69;;;14.08;79.55
79527;BME280;68974;47.754;-3.364;2023-08-06T00:58:30;101999.84;;;14.10;79.38
79527;BME280;68974;47.754;-3.364;2023-08-06T01:00:56;101995.69;;;14.18;79.24
79527;BME280;68974;47.754;-3.364;2023-08-06T01:03:21;101999.28;;;14.13;79.28
79527;BME280;68974;47.754;-3.364;2023-08-06T01:05:47;101997.09;;;14.15;79.60
79527;BME280;68974;47.754;-3.364;2023-08-06T01:15:55;101999.03;;;14.10;79.96
79527;BME280;68974;47.754;-3.364;2023-08-06T01:18:27;101998.44;;;14.08;79.73
79527;BME280;68974;47.754;-3.364;2023-08-06T01:20:53;102007.56;;;14.03;80.25
79527;BME280;68974;47.754;-3.364;2023-08-06T01:23:19;102005.38;;;14.05;79.90
79527;BME280;68974;47.754;-3.364;2023-08-06T01:25:59;101996.81;;;14.12;79.56
79527;BME280;68974;47.754;-3.364;2023-08-06T01:28:41;101996.81;;;14.02;80.09
79527;BME280;68974;47.754;-3.364;2023-08-06T01:31:18;101993.22;;;14.06;80.23
79527;BME280;68974;47.754;-3.364;2023-08-06T01:33:49;101993.75;;;14.03;79.78
79527;BME280;68974;47.754;-3.364;2023-08-06T01:36:16;101995.69;;;14.08;79.94
79527;BME280;68974;47.754;-3.364;2023-08-06T01:38:44;101994.06;;;14.12;79.62
79527;BME280;68974;47.754;-3.364;2023-08-06T01:41:10;101990.72;;;14.05;79.88
79527;BME280;68974;47.754;-3.364;2023-08-06T01:43:35;101996.81;;;14.02;80.13
79527;BME280;68974;47.754;-3.364;2023-08-06T01:46:01;101998.47;;;14.13;79.77
79527;BME280;68974;47.754;-3.364;2023-08-06T01:48:27;101994.06;;;14.07;80.01
79527;BME280;68974;47.754;-3.364;2023-08-06T01:50:52;102002.88;;;14.09;79.90
79527;BME280;68974;47.754;-3.364;2023-08-06T01:53:18;102002.03;;;14.08;79.80
79527;BME280;68974;47.754;-3.364;2023-08-06T01:55:48;102008.13;;;14.05;80.16
79527;BME280;68974;47.754;-3.364;2023-08-06T01:58:13;102007.31;;;14.10;79.63
79527;BME280;68974;47.754;-3.364;2023-08-06T02:00:40;101999.56;;;14.02;79.61
79527;BME280;68974;47.754;-3.364;2023-08-06T02:03:05;102004.53;;;14.00;79.50
79527;BME280;68974;47.754;-3.364;2023-08-06T02:05:31;102001.75;;;14.00;79.19
79527;BME280;68974;47.754;-3.364;2023-08-06T02:07:56;101997.31;;;13.88;80.07
79527;BME280;68974;47.754;-3.364;2023-08-06T02:10:22;101999.00;;;13.95;80.41
79527;BME280;68974;47.754;-3.364;2023-08-06T02:12:47;101996.22;;;13.95;80.07
79527;BME280;68974;47.754;-3.364;2023-08-06T02:15:13;101996.78;;;13.92;80.17
79527;BME280;68974;47.754;-3.364;2023-08-06T02:17:38;101998.44;;;13.82;80.07
79527;BME280;68974;47.754;-3.364;2023-08-06T02:20:05;101998.94;;;13.79;80.30
79527;BME280;68974;47.754;-3.364;2023-08-06T02:22:30;101995.06;;;13.75;80.49
79527;BME280;68974;47.754;-3.364;2023-08-06T02:24:56;101996.75;;;13.76;80.75
79527;BME280;68974;47.754;-3.364;2023-08-06T02:27:21;101995.34;;;13.74;81.05
79527;BME280;68974;47.754;-3.364;2023-08-06T02:29:47;101997.88;;;13.85;80.68
79527;BME280;68974;47.754;-3.364;2023-08-06T02:32:12;101990.66;;;13.79;80.72
79527;BME280;68974;47.754;-3.364;2023-08-06T02:34:38;102000.84;;;13.74;80.80
79527;BME280;68974;47.754;-3.364;2023-08-06T02:37:03;102001.41;;;13.71;81.06
79527;BME280;68974;47.754;-3.364;2023-08-06T02:39:29;101990.66;;;13.74;81.11
79527;BME280;68974;47.754;-3.364;2023-08-06T02:41:54;101995.09;;;13.80;81.08
79527;BME280;68974;47.754;-3.364;2023-08-06T02:44:20;101992.31;;;13.75;80.81
79527;BME280;68974;47.754;-3.364;2023-08-06T02:46:45;101991.22;;;13.76;81.24
79527;BME280;68974;47.754;-3.364;2023-08-06T02:49:13;101994.50;;;13.73;80.61
79527;BME280;68974;47.754;-3.364;2023-08-06T02:51:39;101999.47;;;13.66;80.94
79527;BME280;68974;47.754;-3.364;2023-08-06T02:54:05;101998.34;;;13.62;81.33
79527;BME280;68974;47.754;-3.364;2023-08-06T02:56:30;101997.75;;;13.55;81.65
79527;BME280;68974;47.754;-3.364;2023-08-06T02:58:57;102011.03;;;13.53;82.00
79527;BME280;68974;47.754;-3.364;2023-08-06T03:01:22;102007.66;;;13.46;81.91
79527;BME280;68974;47.754;-3.364;2023-08-06T03:03:48;102005.16;;;13.39;82.21
79527;BME280;68974;47.754;-3.364;2023-08-06T03:06:14;102004.31;;;13.39;82.15
79527;BME280;68974;47.754;-3.364;2023-08-06T03:08:42;102004.28;;;13.29;82.52
79527;BME280;68974;47.754;-3.364;2023-08-06T03:11:07;101997.63;;;13.25;82.61
79527;BME280;68974;47.754;-3.364;2023-08-06T03:13:33;101999.59;;;13.29;82.69
79527;BME280;68974;47.754;-3.364;2023-08-06T03:15:59;102009.50;;;13.25;83.09
79527;BME280;68974;47.754;-3.364;2023-08-06T03:18:25;102002.03;;;13.21;83.03
79527;BME280;68974;47.754;-3.364;2023-08-06T03:20:54;102003.66;;;13.17;83.07
79527;BME280;68974;47.754;-3.364;2023-08-06T03:23:22;102004.22;;;13.14;83.48
79527;BME280;68974;47.754;-3.364;2023-08-06T03:25:47;102002.81;;;13.11;83.48
79527;BME280;68974;47.754;-3.364;2023-08-06T03:28:13;102002.47;;;13.08;83.59
79527;BME280;68974;47.754;-3.364;2023-08-06T03:30:38;102001.41;;;13.09;83.92
79527;BME280;68974;47.754;-3.364;2023-08-06T03:33:04;102011.09;;;13.11;83.54
79527;BME280;68974;47.754;-3.364;2023-08-06T03:35:29;102012.69;;;13.07;84.02
79527;BME280;68974;47.754;-3.364;2023-08-06T03:37:54;102005.50;;;13.06;83.43
79527;BME280;68974;47.754;-3.364;2023-08-06T03:40:20;102006.59;;;13.05;83.61
79527;BME280;68974;47.754;-3.364;2023-08-06T03:42:45;102011.03;;;13.06;83.91
79527;BME280;68974;47.754;-3.364;2023-08-06T03:45:11;102023.69;;;13.02;83.56
79527;BME280;68974;47.754;-3.364;2023-08-06T03:47:36;102011.81;;;13.01;83.71
79527;BME280;68974;47.754;-3.364;2023-08-06T03:50:02;102025.63;;;13.01;83.49
79527;BME280;68974;47.754;-3.364;2023-08-06T03:52:28;102018.44;;;13.00;83.64
79527;BME280;68974;47.754;-3.364;2023-08-06T03:54:53;102015.97;;;12.99;83.16
79527;BME280;68974;47.754;-3.364;2023-08-06T03:57:19;102027.84;;;13.05;83.51
79527;BME280;68974;47.754;-3.364;2023-08-06T03:59:44;102029.38;;;12.90;83.45
79527;BME280;68974;47.754;-3.364;2023-08-06T04:02:09;102021.41;;;12.89;83.78
79527;BME280;68974;47.754;-3.364;2023-08-06T04:04:35;102031.97;;;13.02;84.23
79527;BME280;68974;47.754;-3.364;2023-08-06T04:07:00;102028.53;;;13.22;82.96
79527;BME280;68974;47.754;-3.364;2023-08-06T04:09:28;102041.75;;;13.20;83.10
79527;BME280;68974;47.754;-3.364;2023-08-06T04:11:53;102034.63;;;13.24;82.75
79527;BME280;68974;47.754;-3.364;2023-08-06T04:14:19;102028.78;;;13.20;82.74
79527;BME280;68974;47.754;-3.364;2023-08-06T04:16:44;102021.06;;;13.17;83.12
79527;BME280;68974;47.754;-3.364;2023-08-06T04:19:10;102023.81;;;13.17;82.82
79527;BME280;68974;47.754;-3.364;2023-08-06T04:21:35;102030.69;;;13.15;82.99
79527;BME280;68974;47.754;-3.364;2023-08-06T04:24:01;102025.47;;;13.18;83.00
79527;BME280;68974;47.754;-3.364;2023-08-06T04:26:27;102021.84;;;13.13;82.82
79527;BME280;68974;47.754;-3.364;2023-08-06T04:28:52;102035.66;;;13.13;83.34
79527;BME280;68974;47.754;-3.364;2023-08-06T04:31:21;102033.72;;;13.13;83.36
79527;BME280;68974;47.754;-3.364;2023-08-06T04:33:47;102031.84;;;13.19;83.13
79527;BME280;68974;47.754;-3.364;2023-08-06T04:36:12;102042.56;;;13.15;83.52
79527;BME280;68974;47.754;-3.364;2023-08-06T04:38:38;102038.56;;;13.38;83.23
79527;BME280;68974;47.754;-3.364;2023-08-06T04:41:04;102039.66;;;13.37;82.52
79527;BME280;68974;47.754;-3.364;2023-08-06T04:43:29;102044.66;;;13.50;82.80
79527;BME280;68974;47.754;-3.364;2023-08-06T04:45:55;102032.78;;;13.50;82.36
79527;BME280;68974;47.754;-3.364;2023-08-06T04:48:21;102029.19;;;13.49;82.31
79527;BME280;68974;47.754;-3.364;2023-08-06T04:50:48;102031.97;;;13.49;82.28
79527;BME280;68974;47.754;-3.364;2023-08-06T04:53:14;102038.59;;;13.48;82.10
79527;BME280;68974;47.754;-3.364;2023-08-06T04:55:40;102044.66;;;13.45;82.47
79527;BME280;68974;47.754;-3.364;2023-08-06T04:58:06;102042.22;;;13.49;82.21
79527;BME280;68974;47.754;-3.364;2023-08-06T05:00:31;102037.50;;;13.54;82.01
79527;BME280;68974;47.754;-3.364;2023-08-06T05:02:59;102048.53;;;13.49;82.35
79527;BME280;68974;47.754;-3.364;2023-08-06T05:05:24;102047.19;;;13.57;82.11
79527;BME280;68974;47.754;-3.364;2023-08-06T05:07:50;102055.47;;;13.52;82.03
79527;BME280;68974;47.754;-3.364;2023-08-06T05:10:16;102052.41;;;13.48;82.18
79527;BME280;68974;47.754;-3.364;2023-08-06T05:12:41;102054.03;;;13.49;82.51
79527;BME280;68974;47.754;-3.364;2023-08-06T05:15:07;102057.94;;;13.48;82.48
79527;BME280;68974;47.754;-3.364;2023-08-06T05:17:33;102052.09;;;13.44;82.71
79527;BME280;68974;47.754;-3.364;2023-08-06T05:19:59;102059.56;;;13.49;82.66
79527;BME280;68974;47.754;-3.364;2023-08-06T05:22:24;102073.66;;;13.48;82.36
79527;BME280;68974;47.754;-3.364;2023-08-06T05:24:50;102066.75;;;13.50;82.48
79527;BME280;68974;47.754;-3.364;2023-08-06T05:27:15;102066.22;;;13.48;82.47
79527;BME280;68974;47.754;-3.364;2023-08-06T05:29:41;102066.25;;;13.53;82.26
79527;BME280;68974;47.754;-3.364;2023-08-06T05:32:06;102080.63;;;13.65;82.05
79527;BME280;68974;47.754;-3.364;2023-08-06T05:34:32;102074.59;;;13.78;81.54
79527;BME280;68974;47.754;-3.364;2023-08-06T05:36:57;102083.44;;;13.70;81.34
79527;BME280;68974;47.754;-3.364;2023-08-06T05:39:23;102085.38;;;13.75;81.32
79527;BME280;68974;47.754;-3.364;2023-08-06T05:41:48;102090.66;;;13.81;80.30
79527;BME280;68974;47.754;-3.364;2023-08-06T05:44:15;102089.00;;;13.80;81.06
79527;BME280;68974;47.754;-3.364;2023-08-06T05:46:41;102096.75;;;13.88;80.38
79527;BME280;68974;47.754;-3.364;2023-08-06T05:49:06;102103.41;;;13.93;80.42
79527;BME280;68974;47.754;-3.364;2023-08-06T05:51:31;102105.38;;;14.02;80.00
79527;BME280;68974;47.754;-3.364;2023-08-06T05:53:57;102119.47;;;14.06;79.75
79527;BME280;68974;47.754;-3.364;2023-08-06T05:56:22;102109.28;;;14.11;80.09
79527;BME280;68974;47.754;-3.364;2023-08-06T05:58:48;102122.84;;;14.23;80.06
79527;BME280;68974;47.754;-3.364;2023-08-06T06:01:15;102108.19;;;14.27;79.82
79527;BME280;68974;47.754;-3.364;2023-08-06T06:03:41;102114.56;;;14.28;79.77
79527;BME280;68974;47.754;-3.364;2023-08-06T06:06:06;102118.22;;;14.39;79.81
79527;BME280;68974;47.754;-3.364;2023-08-06T06:08:32;102121.28;;;14.47;79.81
79527;BME280;68974;47.754;-3.364;2023-08-06T06:11:00;102119.34;;;14.53;79.11
79527;BME280;68974;47.754;-3.364;2023-08-06T06:13:26;102127.41;;;14.64;79.26
79527;BME280;68974;47.754;-3.364;2023-08-06T06:15:54;102123.81;;;14.69;79.12
79527;BME280;68974;47.754;-3.364;2023-08-06T06:18:21;102131.28;;;14.73;78.82
79527;BME280;68974;47.754;-3.364;2023-08-06T06:20:47;102130.44;;;14.83;78.94
79527;BME280;68974;47.754;-3.364;2023-08-06T06:23:12;102137.91;;;14.93;78.75
79527;BME280;68974;47.754;-3.364;2023-08-06T06:25:42;102136.00;;;14.93;78.32
79527;BME280;68974;47.754;-3.364;2023-08-06T06:28:08;102135.72;;;15.00;78.54
79527;BME280;68974;47.754;-3.364;2023-08-06T06:30:34;102137.91;;;15.08;78.31
79527;BME280;68974;47.754;-3.364;2023-08-06T06:33:00;102146.75;;;15.15;77.73
79527;BME280;68974;47.754;-3.364;2023-08-06T06:35:25;102144.56;;;15.22;77.70
79527;BME280;68974;47.754;-3.364;2023-08-06T06:37:50;102143.16;;;15.35;77.66
79527;BME280;68974;47.754;-3.364;2023-08-06T06:40:16;102144.28;;;15.39;77.37
79527;BME280;68974;47.754;-3.364;2023-08-06T06:42:42;102140.34;;;15.50;77.44
79527;BME280;68974;47.754;-3.364;2023-08-06T06:45:09;102143.44;;;15.53;77.09
79527;BME280;68974;47.754;-3.364;2023-08-06T06:47:34;102142.84;;;15.62;76.92
79527;BME280;68974;47.754;-3.364;2023-08-06T06:50:00;102142.28;;;15.65;76.76
79527;BME280;68974;47.754;-3.364;2023-08-06T06:52:25;102146.13;;;15.74;76.20
79527;BME280;68974;47.754;-3.364;2023-08-06T06:54:50;102152.50;;;15.74;76.23
79527;BME280;68974;47.754;-3.364;2023-08-06T06:57:16;102155.56;;;15.83;75.87
79527;BME280;68974;47.754;-3.364;2023-08-06T06:59:42;102157.16;;;15.89;74.83
79527;BME280;68974;47.754;-3.364;2023-08-06T07:02:07;102146.63;;;15.96;75.01
79527;BME280;68974;47.754;-3.364;2023-08-06T07:04:32;102144.38;;;16.03;74.93
79527;BME280;68974;47.754;-3.364;2023-08-06T07:06:58;102151.56;;;16.04;73.90
79527;BME280;68974;47.754;-3.364;2023-08-06T07:09:23;102158.75;;;16.15;73.54
79527;BME280;68974;47.754;-3.364;2023-08-06T07:11:49;102156.53;;;16.17;72.60
79527;BME280;68974;47.754;-3.364;2023-08-06T07:14:14;102151.25;;;16.16;72.90
79527;BME280;68974;47.754;-3.364;2023-08-06T07:16:40;102161.44;;;16.30;72.66
79527;BME280;68974;47.754;-3.364;2023-08-06T07:19:05;102163.06;;;16.41;72.41
79527;BME280;68974;47.754;-3.364;2023-08-06T07:21:31;102173.03;;;16.37;71.95
79527;BME280;68974;47.754;-3.364;2023-08-06T07:23:57;102169.75;;;16.35;71.35
79527;BME280;68974;47.754;-3.364;2023-08-06T07:26:24;102169.69;;;16.45;69.72
79527;BME280;68974;47.754;-3.364;2023-08-06T07:28:50;102181.84;;;16.60;69.92
79527;BME280;68974;47.754;-3.364;2023-08-06T07:31:15;102177.94;;;16.61;69.20
79527;BME280;68974;47.754;-3.364;2023-08-06T07:33:41;102177.38;;;16.64;68.79
79527;BME280;68974;47.754;-3.364;2023-08-06T07:36:14;102170.56;;;16.85;68.28
79527;BME280;68974;47.754;-3.364;2023-08-06T07:38:40;102170.84;;;16.83;68.17
79527;BME280;68974;47.754;-3.364;2023-08-06T07:41:05;102166.81;;;17.05;67.53
79527;BME280;68974;47.754;-3.364;2023-08-06T07:43:31;102174.19;;;17.19;67.16
79527;BME280;68974;47.754;-3.364;2023-08-06T07:46:00;102163.56;;;17.55;65.75
79527;BME280;68974;47.754;-3.364;2023-08-06T07:48:26;102166.25;;;17.89;64.61
79527;BME280;68974;47.754;-3.364;2023-08-06T07:50:55;102160.81;;;18.27;63.09
79527;BME280;68974;47.754;-3.364;2023-08-06T07:53:21;102159.19;;;18.63;62.00
79527;BME280;68974;47.754;-3.364;2023-08-06T07:55:55;102160.16;;;19.10;60.49
79527;BME280;68974;47.754;-3.364;2023-08-06T07:58:21;102161.03;;;19.37;59.06
79527;BME280;68974;47.754;-3.364;2023-08-06T08:00:47;102158.47;;;19.41;57.99
79527;BME280;68974;47.754;-3.364;2023-08-06T08:03:13;102168.59;;;19.69;57.78
79527;BME280;68974;47.754;-3.364;2023-08-06T08:05:40;102164.53;;;19.89;57.15
79527;BME280;68974;47.754;-3.364;2023-08-06T08:08:06;102156.38;;;19.65;58.21
79527;BME280;68974;47.754;-3.364;2023-08-06T08:10:32;102159.81;;;20.30;56.00
79527;BME280;68974;47.754;-3.364;2023-08-06T08:12:58;102148.06;;;20.56;55.70
79527;BME280;68974;47.754;-3.364;2023-08-06T08:15:24;102153.75;;;20.87;53.92
79527;BME280;68974;47.754;-3.364;2023-08-06T08:17:51;102153.75;;;21.09;54.08
79527;BME280;68974;47.754;-3.364;2023-08-06T08:20:17;102153.53;;;21.19;53.25
79527;BME280;68974;47.754;-3.364;2023-08-06T08:22:43;102147.50;;;21.56;51.91
79527;BME280;68974;47.754;-3.364;2023-08-06T08:25:08;102156.81;;;21.21;51.55
79527;BME280;68974;47.754;-3.364;2023-08-06T08:27:34;102169.13;;;20.98;53.13
79527;BME280;68974;47.754;-3.364;2023-08-06T08:29:59;102174.88;;;20.43;54.83
79527;BME280;68974;47.754;-3.364;2023-08-06T08:32:24;102178.94;;;20.37;54.16
79527;BME280;68974;47.754;-3.364;2023-08-06T08:34:50;102169.31;;;20.16;54.33
79527;BME280;68974;47.754;-3.364;2023-08-06T08:37:15;102173.44;;;19.91;55.31
79527;BME280;68974;47.754;-3.364;2023-08-06T08:39:41;102175.91;;;20.47;54.13
79527;BME280;68974;47.754;-3.364;2023-08-06T08:42:06;102172.19;;;21.10;53.48
79527;BME280;68974;47.754;-3.364;2023-08-06T08:44:32;102170.84;;;21.91;51.40
79527;BME280;68974;47.754;-3.364;2023-08-06T08:46:59;102174.69;;;21.95;49.16
79527;BME280;68974;47.754;-3.364;2023-08-06T08:49:26;102175.38;;;21.70;49.53
79527;BME280;68974;47.754;-3.364;2023-08-06T08:51:53;102168.81;;;22.14;48.50
79527;BME280;68974;47.754;-3.364;2023-08-06T08:54:22;102167.41;;;21.55;48.51
79527;BME280;68974;47.754;-3.364;2023-08-06T08:56:48;102166.38;;;21.82;48.89
79527;BME280;68974;47.754;-3.364;2023-08-06T08:59:13;102168.31;;;21.73;48.97
79527;BME280;68974;47.754;-3.364;2023-08-06T09:01:40;102166.63;;;21.63;49.76
79527;BME280;68974;47.754;-3.364;2023-08-06T09:04:08;102160.53;;;21.30;51.01
79527;BME280;68974;47.754;-3.364;2023-08-06T09:06:36;102157.28;;;22.07;49.52
79527;BME280;68974;47.754;-3.364;2023-08-06T09:09:09;102166.16;;;22.09;48.73
79527;BME280;68974;47.754;-3.364;2023-08-06T09:11:39;102162.38;;;22.05;47.47
79527;BME280;68974;47.754;-3.364;2023-08-06T09:14:07;102174.47;;;21.52;49.18
79527;BME280;68974;47.754;-3.364;2023-08-06T09:16:37;102175.44;;;20.67;51.58
79527;BME280;68974;47.754;-3.364;2023-08-06T09:19:09;102172.19;;;20.38;52.56
79527;BME280;68974;47.754;-3.364;2023-08-06T09:21:41;102165.94;;;21.57;49.53
79527;BME280;68974;47.754;-3.364;2023-08-06T09:24:13;102164.84;;;21.98;48.01
79527;BME280;68974;47.754;-3.364;2023-08-06T09:26:44;102155.72;;;22.40;47.03
79527;BME280;68974;47.754;-3.364;2023-08-06T09:29:11;102161.50;;;23.21;46.10
79527;BME280;68974;47.754;-3.364;2023-08-06T09:31:44;102163.72;;;23.71;43.66
79527;BME280;68974;47.754;-3.364;2023-08-06T09:34:18;102156.63;;;24.41;41.87
79527;BME280;68974;47.754;-3.364;2023-08-06T09:36:48;102159.25;;;23.79;42.97
79527;BME280;68974;47.754;-3.364;2023-08-06T09:39:15;102151.47;;;23.84;42.73
79527;BME280;68974;47.754;-3.364;2023-08-06T09:41:41;102163.75;;;24.38;43.11
79527;BME280;68974;47.754;-3.364;2023-08-06T09:44:33;102161.56;;;24.85;41.54
79527;BME280;68974;47.754;-3.364;2023-08-06T09:47:01;102174.81;;;24.35;42.82
79527;BME280;68974;47.754;-3.364;2023-08-06T09:49:40;102168.00;;;24.06;43.99
79527;BME280;68974;47.754;-3.364;2023-08-06T09:52:11;102167.38;;;23.63;43.33
79527;BME280;68974;47.754;-3.364;2023-08-06T09:54:37;102173.91;;;22.86;45.21
79527;BME280;68974;47.754;-3.364;2023-08-06T09:57:03;102171.53;;;22.36;45.50
79527;BME280;68974;47.754;-3.364;2023-08-06T09:59:29;102167.25;;;23.33;44.82
79527;BME280;68974;47.754;-3.364;2023-08-06T10:01:55;102168.28;;;23.20;44.63
79527;BME280;68974;47.754;-3.364;2023-08-06T10:04:21;102176.69;;;23.29;42.57
79527;BME280;68974;47.754;-3.364;2023-08-06T10:06:47;102174.00;;;23.41;43.68
79527;BME280;68974;47.754;-3.364;2023-08-06T10:09:13;102178.47;;;23.33;45.08
79527;BME280;68974;47.754;-3.364;2023-08-06T10:11:39;102182.97;;;22.74;46.27
79527;BME280;68974;47.754;-3.364;2023-08-06T10:14:18;102187.34;;;22.41;47.76
79527;BME280;68974;47.754;-3.364;2023-08-06T10:16:45;102197.47;;;22.11;49.72
79527;BME280;68974;47.754;-3.364;2023-08-06T10:19:12;102184.38;;;22.37;47.76
79527;BME280;68974;47.754;-3.364;2023-08-06T10:21:39;102180.25;;;23.64;45.41
79527;BME280;68974;47.754;-3.364;2023-08-06T10:24:07;102182.59;;;23.36;46.67
79527;BME280;68974;47.754;-3.364;2023-08-06T10:26:35;102181.81;;;22.84;47.02
79527;BME280;68974;47.754;-3.364;2023-08-06T10:29:01;102179.75;;;23.62;46.68
79527;BME280;68974;47.754;-3.364;2023-08-06T10:32:00;102177.75;;;24.88;43.45
79527;BME280;68974;47.754;-3.364;2023-08-06T10:34:55;102175.03;;;25.91;41.24
79527;BME280;68974;47.754;-3.364;2023-08-06T10:37:46;102172.94;;;25.10;42.04
79527;BME280;68974;47.754;-3.364;2023-08-06T10:40:20;102182.75;;;24.03;43.55
79527;BME280;68974;47.754;-3.364;2023-08-06T10:42:46;102184.59;;;23.18;45.95
79527;BME280;68974;47.754;-3.364;2023-08-06T10:45:18;102180.31;;;23.12;47.76
79527;BME280;68974;47.754;-3.364;2023-08-06T10:47:45;102174.06;;;22.89;47.55
79527;BME280;68974;47.754;-3.364;2023-08-06T10:50:15;102171.41;;;23.19;47.93
79527;BME280;68974;47.754;-3.364;2023-08-06T10:52:42;102171.03;;;24.31;46.92
79527;BME280;68974;47.754;-3.364;2023-08-06T10:55:09;102181.28;;;23.97;45.25
79527;BME280;68974;47.754;-3.364;2023-08-06T10:57:35;102183.53;;;23.66;46.98
79527;BME280;68974;47.754;-3.364;2023-08-06T11:00:01;102173.38;;;23.18;46.55
79527;BME280;68974;47.754;-3.364;2023-08-06T11:02:26;102173.94;;;22.12;49.72
79527;BME280;68974;47.754;-3.364;2023-08-06T11:04:52;102174.19;;;21.63;50.80
79527;BME280;68974;47.754;-3.364;2023-08-06T11:07:17;102164.97;;;22.67;49.77
79527;BME280;68974;47.754;-3.364;2023-08-06T11:09:42;102151.59;;;23.50;48.60
79527;BME280;68974;47.754;-3.364;2023-08-06T11:12:11;102141.56;;;24.66;44.46
79527;BME280;68974;47.754;-3.364;2023-08-06T11:14:37;102135.66;;;25.00;43.39
79527;BME280;68974;47.754;-3.364;2023-08-06T11:17:05;102143.25;;;24.58;43.57
79527;BME280;68974;47.754;-3.364;2023-08-06T11:19:30;102151.94;;;23.86;44.80
79527;BME280;68974;47.754;-3.364;2023-08-06T11:21:55;102152.78;;;22.97;46.69
79527;BME280;68974;47.754;-3.364;2023-08-06T11:24:21;102151.72;;;22.24;48.14
79527;BME280;68974;47.754;-3.364;2023-08-06T11:26:48;102156.75;;;21.96;49.09
79527;BME280;68974;47.754;-3.364;2023-08-06T11:29:15;102166.72;;;21.27;50.83
79527;BME280;68974;47.754;-3.364;2023-08-06T11:31:41;102161.53;;;21.34;51.43
79527;BME280;68974;47.754;-3.364;2023-08-06T11:34:06;102166.69;;;22.20;50.42
79527;BME280;68974;47.754;-3.364;2023-08-06T11:36:33;102157.66;;;23.52;47.78
79527;BME280;68974;47.754;-3.364;2023-08-06T11:39:00;102142.34;;;25.08;45.59
79527;BME280;68974;47.754;-3.364;2023-08-06T11:41:28;102144.31;;;26.34;39.95
79527;BME280;68974;47.754;-3.364;2023-08-06T11:43:54;102137.03;;;27.41;36.40
79527;BME280;68974;47.754;-3.364;2023-08-06T11:46:19;102136.78;;;27.62;35.54
79527;BME280;68974;47.754;-3.364;2023-08-06T11:48:55;102147.78;;;28.29;35.95
79527;BME280;68974;47.754;-3.364;2023-08-06T11:51:24;102141.22;;;28.60;36.10
79527;BME280;68974;47.754;-3.364;2023-08-06T11:53:57;102133.00;;;26.98;35.84
79527;BME280;68974;47.754;-3.364;2023-08-06T11:56:24;102133.25;;;26.53;38.42
79527;BME280;68974;47.754;-3.364;2023-08-06T11:58:50;102141.94;;;25.63;39.79
79527;BME280;68974;47.754;-3.364;2023-08-06T12:01:15;102142.09;;;25.91;39.35
79527;BME280;68974;47.754;-3.364;2023-08-06T12:03:41;102130.94;;;26.19;39.08
79527;BME280;68974;47.754;-3.364;2023-08-06T12:06:06;102125.72;;;27.41;36.45
79527;BME280;68974;47.754;-3.364;2023-08-06T12:08:35;102139.88;;;28.19;35.51
79527;BME280;68974;47.754;-3.364;2023-08-06T12:11:00;102128.94;;;28.53;34.77
79527;BME280;68974;47.754;-3.364;2023-08-06T12:13:26;102136.72;;;28.75;34.50
79527;BME280;68974;47.754;-3.364;2023-08-06T12:15:51;102123.19;;;27.98;35.44
79527;BME280;68974;47.754;-3.364;2023-08-06T12:18:19;102128.78;;;28.65;34.69
79527;BME280;68974;47.754;-3.364;2023-08-06T12:20:44;102139.88;;;28.19;32.22
79527;BME280;68974;47.754;-3.364;2023-08-06T12:23:09;102138.44;;;27.94;32.42
79527;BME280;68974;47.754;-3.364;2023-08-06T12:25:35;102135.56;;;26.63;35.96
79527;BME280;68974;47.754;-3.364;2023-08-06T12:28:00;102129.91;;;26.88;38.44
79527;BME280;68974;47.754;-3.364;2023-08-06T12:30:26;102128.91;;;27.39;38.22
79527;BME280;68974;47.754;-3.364;2023-08-06T12:32:51;102122.94;;;28.19;36.32
79527;BME280;68974;47.754;-3.364;2023-08-06T12:35:17;102113.81;;;28.64;34.48
79527;BME280;68974;47.754;-3.364;2023-08-06T12:37:42;102118.63;;;28.10;34.29
79527;BME280;68974;47.754;-3.364;2023-08-06T12:40:09;102117.00;;;27.93;34.46
79527;BME280;68974;47.754;-3.364;2023-08-06T12:42:34;102127.91;;;27.32;36.94
79527;BME280;68974;47.754;-3.364;2023-08-06T12:45:00;102127.75;;;27.87;37.12